createdAt,value
2018-07-17T00:02:10.399Z,21.63
2018-07-17T00:04:39.196Z,21.64
2018-07-17T00:07:08.017Z,21.65
2018-07-17T00:09:36.845Z,21.69
2018-07-17T00:12:05.766Z,21.70
2018-07-17T00:14:34.592Z,21.62
2018-07-17T00:17:03.560Z,21.56
2018-07-17T00:19:32.347Z,21.49
2018-07-17T00:22:01.471Z,21.41
2018-07-17T00:24:30.335Z,21.20
2018-07-17T00:26:59.230Z,21.09
2018-07-17T00:29:28.085Z,21.03
2018-07-17T00:31:56.893Z,21.05
2018-07-17T00:34:25.693Z,21.15
2018-07-17T00:36:54.480Z,21.15
2018-07-17T00:39:23.273Z,21.10
2018-07-17T00:41:52.099Z,21.07
2018-07-17T00:44:20.954Z,21.07
2018-07-17T00:46:49.749Z,21.06
2018-07-17T00:49:18.558Z,21.04
2018-07-17T00:51:47.309Z,21.06
2018-07-17T00:54:16.154Z,21.08
2018-07-17T00:56:44.946Z,21.06
2018-07-17T00:59:13.753Z,21.06
2018-07-17T01:01:47.610Z,21.08
2018-07-17T01:04:21.608Z,21.16
2018-07-17T01:06:55.515Z,21.16
2018-07-17T01:09:29.627Z,21.15
2018-07-17T01:12:03.594Z,21.16
2018-07-17T01:14:37.585Z,21.17
2018-07-17T01:17:06.434Z,21.15
2018-07-17T01:19:35.185Z,21.12
2018-07-17T01:22:04.017Z,21.11
2018-07-17T01:24:32.805Z,21.10
2018-07-17T01:27:01.552Z,21.07
2018-07-17T01:29:30.366Z,21.03
2018-07-17T01:31:59.118Z,21.03
2018-07-17T01:34:27.926Z,21.04
2018-07-17T01:36:59.669Z,21.10
2018-07-17T01:39:28.453Z,21.17
2018-07-17T01:41:57.309Z,21.17
2018-07-17T01:44:26.083Z,21.11
2018-07-17T01:46:59.416Z,21.10
2018-07-17T01:49:28.246Z,21.13
2018-07-17T01:51:57.046Z,21.16
2018-07-17T01:54:25.826Z,21.13
2018-07-17T01:56:54.608Z,21.13
2018-07-17T01:59:23.400Z,21.10
2018-07-17T02:01:52.194Z,21.12
2018-07-17T02:04:20.990Z,21.13
2018-07-17T02:06:49.793Z,21.13
2018-07-17T02:09:18.860Z,21.11
2018-07-17T02:11:47.610Z,21.14
2018-07-17T02:14:16.333Z,21.12
2018-07-17T02:16:45.133Z,21.10
2018-07-17T02:19:13.945Z,21.07
2018-07-17T02:21:42.706Z,21.07
2018-07-17T02:24:11.462Z,21.07
2018-07-17T02:26:40.270Z,21.11
2018-07-17T02:29:09.048Z,21.14
2018-07-17T02:31:37.869Z,21.17
2018-07-17T02:34:06.859Z,21.19
2018-07-17T02:36:35.652Z,21.21
2018-07-17T02:39:04.633Z,21.16
2018-07-17T02:41:33.402Z,21.10
2018-07-17T02:44:02.166Z,21.05
2018-07-17T02:46:30.923Z,20.96
2018-07-17T02:48:59.674Z,20.90
2018-07-17T02:51:28.465Z,20.90
2018-07-17T02:53:57.254Z,20.89
2018-07-17T02:56:26.122Z,20.81
2018-07-17T02:58:54.912Z,20.78
2018-07-17T03:01:23.701Z,20.74
2018-07-17T03:03:52.529Z,20.66
2018-07-17T03:06:21.301Z,20.63
2018-07-17T03:08:50.603Z,20.60
2018-07-17T03:11:19.389Z,20.59
2018-07-17T03:13:48.185Z,20.58
2018-07-17T03:16:16.963Z,20.57
2018-07-17T03:18:46.209Z,20.54
2018-07-17T03:21:14.995Z,20.54
2018-07-17T03:23:43.787Z,20.47
2018-07-17T03:26:12.582Z,20.41
2018-07-17T03:28:41.382Z,20.34
2018-07-17T03:31:10.126Z,20.35
2018-07-17T03:33:38.933Z,20.31
2018-07-17T03:36:07.681Z,20.28
2018-07-17T03:38:36.803Z,20.27
2018-07-17T03:41:05.773Z,20.23
2018-07-17T03:43:34.811Z,20.26
2018-07-17T03:46:03.583Z,20.23
2018-07-17T03:48:37.640Z,20.27
2018-07-17T03:51:09.574Z,20.24
2018-07-17T03:53:39.481Z,20.24
2018-07-17T03:56:08.362Z,20.29
2018-07-17T03:58:37.148Z,20.34
2018-07-17T04:01:06.073Z,20.40
2018-07-17T04:03:34.854Z,20.48
2018-07-17T04:06:03.874Z,20.56
2018-07-17T04:08:32.722Z,20.57
2018-07-17T04:11:01.603Z,20.59
2018-07-17T04:13:30.381Z,20.59
2018-07-17T04:15:59.803Z,20.63
2018-07-17T04:18:28.562Z,20.60
2018-07-17T04:20:57.432Z,20.51
2018-07-17T04:23:26.219Z,20.48
2018-07-17T04:25:55.081Z,20.46
2018-07-17T04:28:23.927Z,20.46
2018-07-17T04:30:52.935Z,20.47
2018-07-17T04:33:21.921Z,20.56
2018-07-17T04:35:50.842Z,20.58
2018-07-17T04:38:19.703Z,20.58
2018-07-17T04:40:48.816Z,20.58
2018-07-17T04:43:17.735Z,20.63
2018-07-17T04:45:46.520Z,20.69
2018-07-17T04:48:15.385Z,20.68
2018-07-17T04:50:44.277Z,20.84
2018-07-17T04:53:13.171Z,21.01
2018-07-17T04:55:41.967Z,21.34
2018-07-17T04:58:10.814Z,22.07
2018-07-17T05:00:39.610Z,22.98
2018-07-17T05:03:08.826Z,24.01
2018-07-17T05:05:37.565Z,24.64
2018-07-17T05:08:06.903Z,25.45
2018-07-17T05:10:35.667Z,25.93
2018-07-17T05:13:04.568Z,26.63
2018-07-17T05:15:33.566Z,26.90
2018-07-17T05:18:02.352Z,27.57
2018-07-17T05:20:31.156Z,27.90
2018-07-17T05:22:59.979Z,28.06
2018-07-17T05:25:28.991Z,28.15
2018-07-17T05:27:57.843Z,28.35
2018-07-17T05:30:26.743Z,28.75
2018-07-17T05:32:55.522Z,28.96
2018-07-17T05:35:24.415Z,29.05
2018-07-17T05:37:53.418Z,29.20
2018-07-17T05:40:22.194Z,29.06
2018-07-17T05:42:51.224Z,29.06
2018-07-17T05:45:20.035Z,28.84
2018-07-17T05:47:48.791Z,28.84
2018-07-17T05:50:17.725Z,28.96
2018-07-17T05:52:46.597Z,28.64
2018-07-17T05:55:15.406Z,28.59
2018-07-17T05:57:44.221Z,28.47
2018-07-17T06:00:13.143Z,27.90
2018-07-17T06:02:41.942Z,27.66
2018-07-17T06:05:17.053Z,27.08
2018-07-17T06:07:45.895Z,26.69
2018-07-17T06:10:15.760Z,26.40
2018-07-17T06:12:44.741Z,26.34
2018-07-17T06:15:13.902Z,26.21
2018-07-17T06:17:42.827Z,26.41
2018-07-17T06:20:11.659Z,26.50
2018-07-17T06:22:40.825Z,26.62
2018-07-17T06:25:10.591Z,26.45
2018-07-17T06:27:39.425Z,26.32
2018-07-17T06:30:09.240Z,26.20
2018-07-17T06:32:38.178Z,26.08
2018-07-17T06:35:07.460Z,25.99
2018-07-17T06:37:42.958Z,26.12
2018-07-17T06:40:11.735Z,26.12
2018-07-17T06:42:40.737Z,26.17
2018-07-17T06:45:09.567Z,26.16
2018-07-17T06:47:38.343Z,25.96
2018-07-17T06:50:07.250Z,25.74
2018-07-17T06:52:36.861Z,25.60
2018-07-17T06:55:05.726Z,25.49
2018-07-17T06:57:35.350Z,25.38
2018-07-17T07:00:05.614Z,25.33
2018-07-17T07:02:34.460Z,25.32
2018-07-17T07:05:03.362Z,25.54
2018-07-17T07:07:32.302Z,25.68
2018-07-17T07:10:01.346Z,25.78
2018-07-17T07:12:30.158Z,25.69
2018-07-17T07:14:58.969Z,25.51
2018-07-17T10:18:46.254Z,24.81
2018-07-17T10:21:15.098Z,24.86
2018-07-17T10:23:43.952Z,25.04
2018-07-17T10:26:12.771Z,25.16
2018-07-17T10:28:41.578Z,25.32
2018-07-17T10:31:10.398Z,25.71
2018-07-17T10:33:39.252Z,25.91
2018-07-17T10:36:08.064Z,26.27
2018-07-17T10:38:36.862Z,26.78
2018-07-17T10:41:06.706Z,26.90
2018-07-17T10:43:35.596Z,26.73
2018-07-17T10:46:06.613Z,26.37
2018-07-17T10:48:36.380Z,26.08
2018-07-17T10:51:05.481Z,25.96
2018-07-17T10:53:44.561Z,26.13
2018-07-17T10:56:13.356Z,26.22
2018-07-17T10:58:42.149Z,26.22
2018-07-17T11:01:10.994Z,26.27
2018-07-17T11:03:39.826Z,26.35
2018-07-17T11:06:08.671Z,26.20
2018-07-17T11:08:37.469Z,26.16
2018-07-17T11:11:06.888Z,26.24
2018-07-17T11:13:35.712Z,26.00
2018-07-17T11:16:04.886Z,26.08
2018-07-17T11:18:33.691Z,26.24
2018-07-17T11:21:02.595Z,26.31
2018-07-17T11:23:31.833Z,26.51
2018-07-17T11:26:00.678Z,26.71
2018-07-17T11:28:29.434Z,26.84
2018-07-17T11:30:58.898Z,26.97
2018-07-17T11:33:27.713Z,27.03
2018-07-17T11:35:56.519Z,27.10
2018-07-17T11:38:25.349Z,27.40
2018-07-17T11:40:54.629Z,27.50
2018-07-17T11:43:23.581Z,27.55
2018-07-17T11:45:52.585Z,27.34
2018-07-17T11:48:21.390Z,27.25
2018-07-17T11:50:50.229Z,27.17
2018-07-17T11:53:19.039Z,27.20
2018-07-17T11:55:48.083Z,27.04
2018-07-17T11:58:16.926Z,27.03
2018-07-17T12:00:45.818Z,27.22
2018-07-17T12:03:14.634Z,27.05
2018-07-17T12:05:43.420Z,27.24
2018-07-17T12:08:12.250Z,27.28
2018-07-17T12:10:41.083Z,27.25
2018-07-17T12:13:10.241Z,27.25
2018-07-17T12:15:39.004Z,26.94
2018-07-17T12:18:07.806Z,26.53
2018-07-17T12:20:36.869Z,26.46
2018-07-17T12:23:05.825Z,26.38
2018-07-17T12:25:34.637Z,26.43
2018-07-17T12:28:03.526Z,26.11
2018-07-17T12:30:32.496Z,26.11
2018-07-17T12:33:01.790Z,26.03
2018-07-17T12:35:30.701Z,26.07
2018-07-17T12:37:59.474Z,26.20
2018-07-17T12:40:28.282Z,26.15
2018-07-17T12:42:57.082Z,26.06
2018-07-17T12:45:25.904Z,26.03
2018-07-17T12:47:54.706Z,26.01
2018-07-17T12:50:23.601Z,25.97
2018-07-17T12:52:52.793Z,26.04
2018-07-17T12:55:21.596Z,26.13
2018-07-17T12:57:50.584Z,26.12
2018-07-17T13:00:19.413Z,25.84
2018-07-17T13:02:49.133Z,25.90
2018-07-17T13:05:18.185Z,25.86
2018-07-17T13:07:47.162Z,25.90
2018-07-17T13:10:15.970Z,26.18
2018-07-17T13:12:44.830Z,26.23
2018-07-17T13:15:13.694Z,26.30
2018-07-17T13:17:42.933Z,26.41
2018-07-17T13:20:11.865Z,26.45
2018-07-17T13:22:42.429Z,26.33
2018-07-17T13:25:12.010Z,26.28
2018-07-17T13:27:41.436Z,26.23
2018-07-17T13:30:11.493Z,26.22
2018-07-17T13:32:41.329Z,26.16
2018-07-17T13:35:11.113Z,26.16
2018-07-17T13:37:40.048Z,26.11
2018-07-17T13:40:09.608Z,26.03
2018-07-17T13:42:38.427Z,25.88
2018-07-17T13:45:12.115Z,25.60
2018-07-17T13:47:41.603Z,25.67
2018-07-17T13:50:10.803Z,25.72
2018-07-17T13:52:40.399Z,25.73
2018-07-17T13:55:09.946Z,25.74
2018-07-17T13:57:39.497Z,25.98
2018-07-17T14:00:08.886Z,26.10
2018-07-17T14:02:37.714Z,26.08
2018-07-17T14:05:07.134Z,26.25
2018-07-17T14:07:36.014Z,26.34
2018-07-17T14:10:05.048Z,26.49
2018-07-17T14:12:33.846Z,26.73
2018-07-17T14:15:02.816Z,26.84
2018-07-17T14:17:31.770Z,26.78
2018-07-17T14:20:00.734Z,26.81
2018-07-17T14:22:29.613Z,26.95
2018-07-17T14:24:58.397Z,26.83
2018-07-17T14:27:27.205Z,26.68
2018-07-17T14:29:56.038Z,26.55
2018-07-17T14:32:24.883Z,26.36
2018-07-17T14:34:53.778Z,26.27
2018-07-17T14:37:23.778Z,26.19
2018-07-17T14:39:52.590Z,26.17
2018-07-17T14:42:21.428Z,26.20
2018-07-17T14:44:50.268Z,26.11
2018-07-17T14:47:19.978Z,25.99
2018-07-17T14:49:48.834Z,25.97
2018-07-17T14:52:17.917Z,26.05
2018-07-17T14:54:46.780Z,26.07
2018-07-17T14:57:15.686Z,26.00
2018-07-17T14:59:44.654Z,25.99
2018-07-17T15:02:13.844Z,26.05
2018-07-17T15:04:42.646Z,25.94
2018-07-17T15:07:11.478Z,25.91
2018-07-17T15:09:40.340Z,26.00
2018-07-17T15:12:09.281Z,25.94
2018-07-17T15:14:38.015Z,25.99
2018-07-17T15:17:06.929Z,25.94
2018-07-17T15:19:36.387Z,25.90
2018-07-17T15:22:05.229Z,25.95
2018-07-17T15:24:34.011Z,25.93
2018-07-17T15:27:02.773Z,25.87
2018-07-17T15:29:31.719Z,25.75
2018-07-17T15:32:00.664Z,25.51
2018-07-17T15:34:29.581Z,25.37
2018-07-17T15:36:58.496Z,25.32
2018-07-17T15:39:27.359Z,25.33
2018-07-17T15:41:56.155Z,25.30
2018-07-17T15:44:25.035Z,25.27
2018-07-17T15:46:54.416Z,25.16
2018-07-17T15:49:23.325Z,25.09
2018-07-17T15:51:52.259Z,24.93
2018-07-17T15:54:21.158Z,24.76
2018-07-17T15:56:50.342Z,24.68
2018-07-17T15:59:19.134Z,24.60
2018-07-17T16:01:48.337Z,24.64
2018-07-17T16:04:17.170Z,24.64
2018-07-17T16:06:46.064Z,24.63
2018-07-17T16:09:14.944Z,24.53
2018-07-17T16:11:44.137Z,24.36
2018-07-17T16:14:13.419Z,24.25
2018-07-17T16:16:42.002Z,24.19
2018-07-17T16:19:11.773Z,24.08
2018-07-17T16:21:41.808Z,24.00
2018-07-17T16:24:10.673Z,23.95
2018-07-17T16:26:40.408Z,23.83
2018-07-17T16:29:09.354Z,23.77
2018-07-17T16:31:38.226Z,23.70
2018-07-17T16:34:08.042Z,23.71
2018-07-17T16:36:36.953Z,23.74
2018-07-17T16:39:08.029Z,23.67
2018-07-17T16:41:36.816Z,23.60
2018-07-17T16:44:05.617Z,23.55
2018-07-17T16:46:34.427Z,23.50
2018-07-17T16:49:03.280Z,23.42
2018-07-17T16:51:32.118Z,23.37
2018-07-17T16:54:00.981Z,23.35
2018-07-17T16:56:30.014Z,23.30
2018-07-17T16:58:58.892Z,23.17
2018-07-17T17:01:27.680Z,23.10
2018-07-17T17:03:56.468Z,23.10
2018-07-17T17:06:25.364Z,23.01
2018-07-17T17:08:54.234Z,22.97
2018-07-17T17:11:23.168Z,22.99
2018-07-17T17:13:51.996Z,22.94
2018-07-17T17:16:20.806Z,22.87
2018-07-17T17:18:49.649Z,22.85
2018-07-17T17:21:18.663Z,22.75
2018-07-17T17:23:47.497Z,22.71
2018-07-17T17:26:16.440Z,22.69
2018-07-17T17:28:45.276Z,22.70
2018-07-17T17:31:14.176Z,22.67
2018-07-17T17:33:42.994Z,22.62
2018-07-17T17:36:11.905Z,22.64
2018-07-17T17:38:40.824Z,22.55
2018-07-17T17:41:09.596Z,22.53
2018-07-17T17:43:38.373Z,22.51
2018-07-17T17:46:07.181Z,22.47
2018-07-17T17:48:36.021Z,22.47
2018-07-17T17:51:04.855Z,22.43
2018-07-17T17:53:33.708Z,22.44
2018-07-17T17:56:02.520Z,22.46
2018-07-17T17:58:31.331Z,22.42
2018-07-17T18:01:00.330Z,22.43
2018-07-17T18:03:29.189Z,22.44
2018-07-17T18:05:58.037Z,22.40
2018-07-17T18:08:26.806Z,22.34
2018-07-17T18:10:55.664Z,22.30
2018-07-17T18:13:24.454Z,22.30
2018-07-17T18:15:53.409Z,22.28
2018-07-17T18:18:22.212Z,22.23
2018-07-17T18:20:51.011Z,22.22
2018-07-17T18:23:19.955Z,22.18
2018-07-17T18:25:48.814Z,22.08
2018-07-17T18:28:17.706Z,22.04
2018-07-17T18:30:56.658Z,22.02
2018-07-17T18:33:25.608Z,21.92
2018-07-17T18:35:54.411Z,21.84
2018-07-17T18:38:23.284Z,21.81
2018-07-17T18:40:52.077Z,21.81
2018-07-17T18:43:20.901Z,21.75
2018-07-17T18:45:49.707Z,21.70
2018-07-17T18:48:18.548Z,21.67
2018-07-17T18:50:47.595Z,21.64
2018-07-17T18:53:16.415Z,21.57
2018-07-17T18:55:45.220Z,21.48
2018-07-17T18:58:14.075Z,21.45
2018-07-17T19:00:43.539Z,21.44
2018-07-17T19:03:12.846Z,21.43
2018-07-17T19:05:42.075Z,21.39
2018-07-17T19:08:11.314Z,21.37
2018-07-17T19:10:40.098Z,21.40
2018-07-17T19:13:08.882Z,21.36
2018-07-17T19:15:38.002Z,21.35
2018-07-17T19:18:06.779Z,21.36
2018-07-17T19:20:35.721Z,21.39
2018-07-17T19:23:04.576Z,21.37
2018-07-17T19:25:35.032Z,21.36
2018-07-17T19:28:03.864Z,21.36
2018-07-17T19:30:32.722Z,21.30
2018-07-17T19:33:01.517Z,21.31
2018-07-17T19:35:34.176Z,21.32
2018-07-17T19:38:03.392Z,21.27
2018-07-17T19:40:32.248Z,21.22
2018-07-17T19:43:01.227Z,21.19
2018-07-17T19:45:31.422Z,21.15
2018-07-17T19:48:00.324Z,21.19
2018-07-17T19:50:29.188Z,21.26
2018-07-17T19:52:58.058Z,21.28
2018-07-17T19:55:27.055Z,21.29
2018-07-17T19:57:55.946Z,21.34
2018-07-17T20:00:24.922Z,21.35
2018-07-17T20:02:53.771Z,21.38
2018-07-17T20:05:22.574Z,21.37
2018-07-17T20:07:51.360Z,21.33
2018-07-17T20:10:20.285Z,21.28
2018-07-17T20:12:49.089Z,21.22
2018-07-17T20:15:18.169Z,21.15
2018-07-17T20:17:47.440Z,21.06
2018-07-17T20:20:16.268Z,21.05
2018-07-17T20:22:45.229Z,20.99
2018-07-17T20:25:14.113Z,21.03
2018-07-17T20:27:42.974Z,21.06
2018-07-17T20:30:11.840Z,21.03
2018-07-17T20:32:40.687Z,21.00
2018-07-17T20:35:09.528Z,21.01
2018-07-17T20:37:38.417Z,20.98
2018-07-17T20:40:07.275Z,20.98
2018-07-17T20:42:36.075Z,20.94
2018-07-17T20:45:05.020Z,21.01
2018-07-17T20:47:33.879Z,21.01
2018-07-17T20:50:02.706Z,20.99
2018-07-17T20:52:31.596Z,20.94
2018-07-17T20:55:00.484Z,20.94
2018-07-17T20:57:29.729Z,20.91
2018-07-17T20:59:58.619Z,20.91
2018-07-17T21:02:27.477Z,20.88
2018-07-17T21:04:56.333Z,20.84
2018-07-17T21:07:25.331Z,20.79
2018-07-17T21:09:54.136Z,20.80
2018-07-17T21:12:22.988Z,20.76
2018-07-17T21:14:51.842Z,20.77
2018-07-17T21:17:20.777Z,20.74
2018-07-17T21:19:49.776Z,20.71
2018-07-17T21:22:18.578Z,20.68
2018-07-17T21:24:47.542Z,20.63
2018-07-17T21:27:16.377Z,20.62
2018-07-17T21:29:45.199Z,20.60
2018-07-17T21:32:14.029Z,20.58
2018-07-17T21:34:42.869Z,20.49
2018-07-17T21:37:12.680Z,20.47
2018-07-17T21:39:41.701Z,20.42
2018-07-17T21:42:10.593Z,20.42
2018-07-17T21:44:39.449Z,20.45
2018-07-17T21:47:08.276Z,20.45
2018-07-17T21:49:37.236Z,20.45
2018-07-17T21:52:06.229Z,20.43
2018-07-17T21:54:35.093Z,20.47
2018-07-17T21:57:03.923Z,20.45
2018-07-17T21:59:32.784Z,20.44
2018-07-17T22:02:01.671Z,20.40
2018-07-17T22:04:30.457Z,20.35
2018-07-17T22:06:59.503Z,20.25
2018-07-17T22:09:28.312Z,20.19
2018-07-17T22:11:57.201Z,20.10
2018-07-17T22:14:26.026Z,20.15
2018-07-17T22:16:54.838Z,20.11
2018-07-17T22:19:24.396Z,20.16
2018-07-17T22:21:53.264Z,20.04
2018-07-17T22:24:22.115Z,19.98
2018-07-17T22:26:50.952Z,19.92
2018-07-17T22:29:19.772Z,19.90
2018-07-17T22:31:48.635Z,19.91
2018-07-17T22:34:17.429Z,19.85
2018-07-17T22:36:46.242Z,19.92
2018-07-17T22:39:15.220Z,19.91
2018-07-17T22:41:44.032Z,19.84
2018-07-17T22:44:12.839Z,19.81
2018-07-17T22:46:41.712Z,19.78
2018-07-17T22:49:11.567Z,19.77
2018-07-17T22:51:40.776Z,19.75
2018-07-17T22:54:09.660Z,19.70
2018-07-17T22:56:38.507Z,19.66
2018-07-17T22:59:07.383Z,19.66
2018-07-17T23:01:36.208Z,19.69
2018-07-17T23:04:05.095Z,19.67
2018-07-17T23:06:33.876Z,19.63
2018-07-17T23:09:02.827Z,19.67
2018-07-17T23:11:31.633Z,19.67
2018-07-17T23:14:00.448Z,19.67
2018-07-17T23:16:29.270Z,19.66
2018-07-17T23:18:58.067Z,19.65
2018-07-17T23:21:26.928Z,19.61
2018-07-17T23:23:55.758Z,19.62
2018-07-17T23:26:24.617Z,19.64
2018-07-17T23:28:53.432Z,19.56
2018-07-17T23:31:22.249Z,19.54
2018-07-17T23:33:51.112Z,19.52
2018-07-17T23:36:19.940Z,19.57
2018-07-17T23:38:48.761Z,19.52
2018-07-17T23:41:17.613Z,19.51
2018-07-17T23:43:46.480Z,19.55
2018-07-17T23:46:15.342Z,19.50
2018-07-17T23:48:44.170Z,19.47
2018-07-17T23:51:12.966Z,19.50
2018-07-17T23:53:41.775Z,19.46
2018-07-17T23:56:10.938Z,19.51
2018-07-17T23:58:39.861Z,19.52
